sensor_id;sensor_type;location;lat;lon;timestamp;pressure;altitude;pressure_sealevel;temperature;humidity
21273;BME280;36726;52.328;10.552;2022-09-30T00:00:54;99797.84;;;7.19;100.00
21273;BME280;36726;52.328;10.552;2022-09-30T00:03:22;99795.19;;;7.18;100.00
21273;BME280;36726;52.328;10.552;2022-09-30T00:06:00;99796.94;;;7.17;100.00
21273;BME280;36726;52.328;10.552;2022-09-30T00:08:34;99796.03;;;7.17;100.00
21273;BME280;36726;52.328;10.552;2022-09-30T00:11:03;99800.44;;;7.16;100.00
21273;BME280;36726;52.328;10.552;2022-09-30T00:13:33;99804.78;;;7.14;100.00
21273;BME280;36726;52.328;10.552;2022-09-30T00:16:00;99803.88;;;7.14;100.00
21273;BME280;36726;52.328;10.552;2022-09-30T00:18:28;99806.50;;;7.12;100.00
21273;BME280;36726;52.328;10.552;2022-09-30T00:20:55;99814.38;;;7.11;100.00
21273;BME280;36726;52.328;10.552;2022-09-30T00:23:22;99809.97;;;7.10;100.00
21273;BME280;36726;52.328;10.552;2022-09-30T00:25:49;99810.81;;;7.07;100.00
21273;BME280;36726;52.328;10.552;2022-09-30T00:28:16;99816.94;;;7.06;100.00
21273;BME280;36726;52.328;10.552;2022-09-30T00:30:42;99808.13;;;7.04;100.00
21273;BME280;36726;52.328;10.552;2022-09-30T00:33:09;99809.84;;;7.02;100.00
21273;BME280;36726;52.328;10.552;2022-09-30T00:35:36;99807.19;;;7.01;100.00
21273;BME280;36726;52.328;10.552;2022-09-30T00:38:03;99804.56;;;6.99;100.00
21273;BME280;36726;52.328;10.552;2022-09-30T00:40:30;99811.53;;;6.97;100.00
21273;BME280;36726;52.328;10.552;2022-09-30T00:42:57;99812.41;;;6.96;100.00
21273;BME280;36726;52.328;10.552;2022-09-30T00:45:27;99809.72;;;6.93;100.00
21273;BME280;36726;52.328;10.552;2022-09-30T00:48:10;99807.94;;;6.91;100.00
21273;BME280;36726;52.328;10.552;2022-09-30T00:50:44;99802.66;;;6.89;100.00
21273;BME280;36726;52.328;10.552;2022-09-30T00:53:17;99804.38;;;6.87;100.00
21273;BME280;36726;52.328;10.552;2022-09-30T00:56:01;99799.94;;;6.85;100.00
21273;BME280;36726;52.328;10.552;2022-09-30T00:58:35;99805.16;;;6.82;100.00
21273;BME280;36726;52.328;10.552;2022-09-30T01:01:02;99807.78;;;6.80;100.00
21273;BME280;36726;52.328;10.552;2022-09-30T01:03:34;99816.50;;;6.79;100.00
21273;BME280;36726;52.328;10.552;2022-09-30T01:06:02;99818.22;;;6.77;100.00
21273;BME280;36726;52.328;10.552;2022-09-30T01:08:30;99815.56;;;6.76;100.00
21273;BME280;36726;52.328;10.552;2022-09-30T01:10:58;99812.94;;;6.74;100.00
21273;BME280;36726;52.328;10.552;2022-09-30T01:13:32;99823.41;;;6.71;100.00
21273;BME280;36726;52.328;10.552;2022-09-30T01:18:43;99825.97;;;6.68;100.00
21273;BME280;36726;52.328;10.552;2022-09-30T01:27:11;99818.91;;;6.64;100.00
21273;BME280;36726;52.328;10.552;2022-09-30T01:30:19;99816.22;;;6.61;100.00
21273;BME280;36726;52.328;10.552;2022-09-30T01:33:02;99816.16;;;6.58;100.00
21273;BME280;36726;52.328;10.552;2022-09-30T01:35:42;99817.88;;;6.56;100.00
21273;BME280;36726;52.328;10.552;2022-09-30T01:38:26;99817.88;;;6.55;100.00
21273;BME280;36726;52.328;10.552;2022-09-30T01:41:06;99818.69;;;6.52;100.00
21273;BME280;36726;52.328;10.552;2022-09-30T01:44:10;99825.66;;;6.50;100.00
21273;BME280;36726;52.328;10.552;2022-09-30T01:46:53;99827.44;;;6.51;100.00
21273;BME280;36726;52.328;10.552;2022-09-30T01:49:33;99825.66;;;6.50;100.00
21273;BME280;36726;52.328;10.552;2022-09-30T01:52:12;99827.34;;;6.47;100.00
21273;BME280;36726;52.328;10.552;2022-09-30T01:55:00;99828.19;;;6.44;100.00
21273;BME280;36726;52.328;10.552;2022-09-30T02:00:16;99832.47;;;6.39;100.00
21273;BME280;36726;52.328;10.552;2022-09-30T02:02:53;99833.34;;;6.38;100.00
21273;BME280;36726;52.328;10.552;2022-09-30T02:05:45;99835.91;;;6.35;100.00
21273;BME280;36726;52.328;10.552;2022-09-30T02:08:27;99850.75;;;6.33;100.00
21273;BME280;36726;52.328;10.552;2022-09-30T02:11:25;99852.47;;;6.31;100.00
21273;BME280;36726;52.328;10.552;2022-09-30T02:13:59;99846.28;;;6.29;100.00
21273;BME280;36726;52.328;10.552;2022-09-30T02:16:36;99847.16;;;6.28;100.00
21273;BME280;36726;52.328;10.552;2022-09-30T02:19:18;99847.13;;;6.26;100.00
21273;BME280;36726;52.328;10.552;2022-09-30T02:21:55;99845.34;;;6.24;100.00
21273;BME280;36726;52.328;10.552;2022-09-30T02:24:25;99835.66;;;6.21;100.00
21273;BME280;36726;52.328;10.552;2022-09-30T02:26:55;99845.25;;;6.21;100.00
21273;BME280;36726;52.328;10.552;2022-09-30T02:29:27;99847.00;;;6.19;100.00
21273;BME280;36726;52.328;10.552;2022-09-30T02:31:59;99846.94;;;6.17;100.00
21273;BME280;36726;52.328;10.552;2022-09-30T02:34:35;99846.91;;;6.14;100.00
21273;BME280;36726;52.328;10.552;2022-09-30T02:37:16;99848.63;;;6.14;100.00
21273;BME280;36726;52.328;10.552;2022-09-30T02:40:06;99847.78;;;6.13;100.00
21273;BME280;36726;52.328;10.552;2022-09-30T02:42:36;99846.84;;;6.10;100.00
21273;BME280;36726;52.328;10.552;2022-09-30T02:45:07;99842.41;;;6.09;100.00
21273;BME280;36726;52.328;10.552;2022-09-30T02:48:24;99845.00;;;6.06;100.00
21273;BME280;36726;52.328;10.552;2022-09-30T02:51:18;99848.44;;;6.03;100.00
21273;BME280;36726;52.328;10.552;2022-09-30T02:54:14;99844.94;;;6.03;100.00
21273;BME280;36726;52.328;10.552;2022-09-30T02:56:52;99850.13;;;6.01;100.00
21273;BME280;36726;52.328;10.552;2022-09-30T02:59:21;99847.50;;;6.00;100.00
21273;BME280;36726;52.328;10.552;2022-09-30T03:01:49;99852.72;;;5.98;100.00
21273;BME280;36726;52.328;10.552;2022-09-30T03:04:21;99854.41;;;5.96;100.00
21273;BME280;36726;52.328;10.552;2022-09-30T03:06:48;99850.91;;;5.96;100.00
21273;BME280;36726;52.328;10.552;2022-09-30T03:09:15;99859.63;;;5.93;100.00
21273;BME280;36726;52.328;10.552;2022-09-30T03:11:41;99856.97;;;5.92;100.00
21273;BME280;36726;52.328;10.552;2022-09-30T03:17:28;99863.94;;;5.90;100.00
21273;BME280;36726;52.328;10.552;2022-09-30T03:26:03;99875.19;;;5.84;100.00
21273;BME280;36726;52.328;10.552;2022-09-30T03:37:11;99879.44;;;5.79;100.00
21273;BME280;36726;52.328;10.552;2022-09-30T03:40:02;99888.16;;;5.80;100.00
21273;BME280;36726;52.328;10.552;2022-09-30T03:42:44;99894.28;;;5.79;100.00
21273;BME280;36726;52.328;10.552;2022-09-30T03:45:17;99893.34;;;5.77;100.00
21273;BME280;36726;52.328;10.552;2022-09-30T03:47:49;99891.59;;;5.76;100.00
21273;BME280;36726;52.328;10.552;2022-09-30T03:50:19;99893.31;;;5.75;100.00
21273;BME280;36726;52.328;10.552;2022-09-30T03:52:48;99898.56;;;5.74;100.00
21273;BME280;36726;52.328;10.552;2022-09-30T03:55:15;99899.38;;;5.73;100.00
21273;BME280;36726;52.328;10.552;2022-09-30T03:57:42;99895.84;;;5.71;100.00
21273;BME280;36726;52.328;10.552;2022-09-30T04:00:11;99898.47;;;5.71;100.00
21273;BME280;36726;52.328;10.552;2022-09-30T04:02:38;99907.19;;;5.70;100.00
21273;BME280;36726;52.328;10.552;2022-09-30T04:05:05;99900.13;;;5.67;100.00
21273;BME280;36726;52.328;10.552;2022-09-30T04:07:32;99904.53;;;5.67;100.00
21273;BME280;36726;52.328;10.552;2022-09-30T04:09:59;99903.59;;;5.65;100.00
21273;BME280;36726;52.328;10.552;2022-09-30T04:12:26;99908.81;;;5.63;100.00
21273;BME280;36726;52.328;10.552;2022-09-30T04:14:52;99908.75;;;5.62;100.00
21273;BME280;36726;52.328;10.552;2022-09-30T04:17:19;99906.09;;;5.60;100.00
21273;BME280;36726;52.328;10.552;2022-09-30T04:19:46;99905.22;;;5.60;100.00
21273;BME280;36726;52.328;10.552;2022-09-30T04:22:12;99910.41;;;5.57;100.00
21273;BME280;36726;52.328;10.552;2022-09-30T04:24:39;99909.50;;;5.56;100.00
21273;BME280;36726;52.328;10.552;2022-09-30T04:27:05;99914.72;;;5.55;100.00
21273;BME280;36726;52.328;10.552;2022-09-30T04:29:32;99905.09;;;5.54;100.00
21273;BME280;36726;52.328;10.552;2022-09-30T04:31:59;99912.94;;;5.52;100.00
21273;BME280;36726;52.328;10.552;2022-09-30T04:34:25;99913.78;;;5.51;100.00
21273;BME280;36726;52.328;10.552;2022-09-30T04:36:52;99922.47;;;5.49;100.00
21273;BME280;36726;52.328;10.552;2022-09-30T04:39:19;99918.06;;;5.48;100.00
21273;BME280;36726;52.328;10.552;2022-09-30T04:41:45;99924.19;;;5.47;100.00
21273;BME280;36726;52.328;10.552;2022-09-30T04:44:12;99927.63;;;5.46;100.00
21273;BME280;36726;52.328;10.552;2022-09-30T04:46:39;99934.56;;;5.44;100.00
21273;BME280;36726;52.328;10.552;2022-09-30T04:49:06;99939.81;;;5.44;100.00
21273;BME280;36726;52.328;10.552;2022-09-30T04:51:35;99938.91;;;5.42;100.00
21273;BME280;36726;52.328;10.552;2022-09-30T04:54:02;99938.88;;;5.40;100.00
21273;BME280;36726;52.328;10.552;2022-09-30T04:56:28;99944.97;;;5.39;100.00
21273;BME280;36726;52.328;10.552;2022-09-30T04:58:55;99944.84;;;5.35;100.00
21273;BME280;36726;52.328;10.552;2022-09-30T05:01:22;99954.41;;;5.32;100.00
21273;BME280;36726;52.328;10.552;2022-09-30T05:03:48;99960.53;;;5.32;100.00
21273;BME280;36726;52.328;10.552;2022-09-30T05:06:16;99955.22;;;5.28;100.00
21273;BME280;36726;52.328;10.552;2022-09-30T05:08:43;99959.56;;;5.28;100.00
21273;BME280;36726;52.328;10.552;2022-09-30T05:11:17;99967.44;;;5.28;100.00
21273;BME280;36726;52.328;10.552;2022-09-30T05:13:45;99971.81;;;5.29;100.00
21273;BME280;36726;52.328;10.552;2022-09-30T05:16:12;99967.47;;;5.29;100.00
21273;BME280;36726;52.328;10.552;2022-09-30T05:18:39;99968.34;;;5.30;100.00
21273;BME280;36726;52.328;10.552;2022-09-30T05:21:08;99960.47;;;5.28;100.00
21273;BME280;36726;52.328;10.552;2022-09-30T05:23:35;99965.72;;;5.30;100.00
21273;BME280;36726;52.328;10.552;2022-09-30T05:26:02;99968.34;;;5.30;100.00
21273;BME280;36726;52.328;10.552;2022-09-30T05:28:33;99965.75;;;5.32;100.00
21273;BME280;36726;52.328;10.552;2022-09-30T05:31:02;99971.03;;;5.33;100.00
21273;BME280;36726;52.328;10.552;2022-09-30T05:33:32;99966.72;;;5.35;100.00
21273;BME280;36726;52.328;10.552;2022-09-30T05:36:00;99972.91;;;5.37;100.00
21273;BME280;36726;52.328;10.552;2022-09-30T05:38:27;99975.53;;;5.39;100.00
21273;BME280;36726;52.328;10.552;2022-09-30T05:40:54;99980.81;;;5.40;100.00
21273;BME280;36726;52.328;10.552;2022-09-30T05:43:21;99989.66;;;5.44;100.00
21273;BME280;36726;52.328;10.552;2022-09-30T05:45:55;99999.34;;;5.46;100.00
21273;BME280;36726;52.328;10.552;2022-09-30T05:48:22;100007.28;;;5.51;100.00
21273;BME280;36726;52.328;10.552;2022-09-30T05:50:56;100004.78;;;5.54;100.00
21273;BME280;36726;52.328;10.552;2022-09-30T05:53:23;100004.84;;;5.57;100.00
21273;BME280;36726;52.328;10.552;2022-09-30T05:55:50;100012.81;;;5.61;100.00
21273;BME280;36726;52.328;10.552;2022-09-30T05:58:18;100012.00;;;5.64;100.00
21273;BME280;36726;52.328;10.552;2022-09-30T06:00:47;100012.09;;;5.67;100.00
21273;BME280;36726;52.328;10.552;2022-09-30T06:03:15;100013.06;;;5.72;100.00
21273;BME280;36726;52.328;10.552;2022-09-30T06:05:42;100020.19;;;5.77;100.00
21273;BME280;36726;52.328;10.552;2022-09-30T06:08:11;100012.41;;;5.82;100.00
21273;BME280;36726;52.328;10.552;2022-09-30T06:10:42;100018.69;;;5.87;100.00
21273;BME280;36726;52.328;10.552;2022-09-30T06:13:09;100012.75;;;5.94;100.00
21273;BME280;36726;52.328;10.552;2022-09-30T06:15:36;100025.09;;;5.99;100.00
21273;BME280;36726;52.328;10.552;2022-09-30T06:18:05;100022.59;;;6.04;100.00
21273;BME280;36726;52.328;10.552;2022-09-30T06:20:32;100028.81;;;6.09;100.00
21273;BME280;36726;52.328;10.552;2022-09-30T06:22:59;100025.47;;;6.16;100.00
21273;BME280;36726;52.328;10.552;2022-09-30T06:25:27;100022.06;;;6.20;100.00
21273;BME280;36726;52.328;10.552;2022-09-30T06:27:54;100026.59;;;6.27;100.00
21273;BME280;36726;52.328;10.552;2022-09-30T06:30:21;100039.84;;;6.33;100.00
21273;BME280;36726;52.328;10.552;2022-09-30T06:32:48;100036.50;;;6.40;100.00
21273;BME280;36726;52.328;10.552;2022-09-30T06:35:14;100037.56;;;6.50;100.00
21273;BME280;36726;52.328;10.552;2022-09-30T06:37:43;100035.94;;;6.56;100.00
21273;BME280;36726;52.328;10.552;2022-09-30T06:40:10;100035.19;;;6.62;100.00
21273;BME280;36726;52.328;10.552;2022-09-30T06:42:37;100041.44;;;6.68;100.00
21273;BME280;36726;52.328;10.552;2022-09-30T06:45:03;100052.09;;;6.74;100.00
21273;BME280;36726;52.328;10.552;2022-09-30T06:47:30;100054.88;;;6.82;100.00
21273;BME280;36726;52.328;10.552;2022-09-30T06:49:58;100062.03;;;6.90;100.00
21273;BME280;36726;52.328;10.552;2022-09-30T06:52:25;100055.19;;;6.98;100.00
21273;BME280;36726;52.328;10.552;2022-09-30T06:54:52;100065.81;;;7.04;100.00
21273;BME280;36726;52.328;10.552;2022-09-30T06:57:23;100063.31;;;7.12;100.00
21273;BME280;36726;52.328;10.552;2022-09-30T06:59:52;100060.81;;;7.18;100.00
21273;BME280;36726;52.328;10.552;2022-09-30T07:02:19;100053.91;;;7.24;100.00
21273;BME280;36726;52.328;10.552;2022-09-30T07:04:47;100061.13;;;7.34;100.00
21273;BME280;36726;52.328;10.552;2022-09-30T07:07:13;100060.34;;;7.42;100.00
21273;BME280;36726;52.328;10.552;2022-09-30T07:09:40;100063.06;;;7.48;100.00
21273;BME280;36726;52.328;10.552;2022-09-30T07:12:08;100065.84;;;7.55;100.00
21273;BME280;36726;52.328;10.552;2022-09-30T07:14:35;100067.72;;;7.64;100.00
21273;BME280;36726;52.328;10.552;2022-09-30T07:17:02;100070.47;;;7.70;100.00
21273;BME280;36726;52.328;10.552;2022-09-30T07:19:30;100075.00;;;7.78;100.00
21273;BME280;36726;52.328;10.552;2022-09-30T07:22:00;100075.13;;;7.86;100.00
21273;BME280;36726;52.328;10.552;2022-09-30T07:24:47;100082.31;;;7.96;100.00
21273;BME280;36726;52.328;10.552;2022-09-30T07:27:13;100072.75;;;8.04;100.00
21273;BME280;36726;52.328;10.552;2022-09-30T07:29:40;100073.78;;;8.13;100.00
21273;BME280;36726;52.328;10.552;2022-09-30T07:32:27;100077.44;;;8.23;100.00
21273;BME280;36726;52.328;10.552;2022-09-30T07:34:53;100074.97;;;8.32;100.00
21273;BME280;36726;52.328;10.552;2022-09-30T07:37:20;100074.22;;;8.42;100.00
21273;BME280;36726;52.328;10.552;2022-09-30T07:39:47;100077.88;;;8.50;100.00
21273;BME280;36726;52.328;10.552;2022-09-30T07:42:15;100071.81;;;8.57;100.00
21273;BME280;36726;52.328;10.552;2022-09-30T07:44:48;100080.69;;;8.65;100.00
21273;BME280;36726;52.328;10.552;2022-09-30T07:47:18;100081.69;;;8.75;100.00
21273;BME280;36726;52.328;10.552;2022-09-30T07:49:45;100080.88;;;8.82;100.00
21273;BME280;36726;52.328;10.552;2022-09-30T07:52:12;100094.16;;;8.88;100.00
21273;BME280;36726;52.328;10.552;2022-09-30T07:54:40;100097.72;;;8.93;100.00
21273;BME280;36726;52.328;10.552;2022-09-30T07:57:13;100093.41;;;8.99;100.00
21273;BME280;36726;52.328;10.552;2022-09-30T07:59:40;100087.31;;;9.05;100.00
21273;BME280;36726;52.328;10.552;2022-09-30T08:02:13;100097.94;;;9.12;100.00
21273;BME280;36726;52.328;10.552;2022-09-30T08:04:41;100092.75;;;9.18;100.00
21273;BME280;36726;52.328;10.552;2022-09-30T08:07:11;100092.78;;;9.23;100.00
21273;BME280;36726;52.328;10.552;2022-09-30T08:09:38;100093.75;;;9.31;100.00
21273;BME280;36726;52.328;10.552;2022-09-30T08:12:05;100099.13;;;9.38;100.00
21273;BME280;36726;52.328;10.552;2022-09-30T08:14:31;100093.03;;;9.47;100.00
21273;BME280;36726;52.328;10.552;2022-09-30T08:16:58;100094.88;;;9.56;100.00
21273;BME280;36726;52.328;10.552;2022-09-30T08:19:28;100094.94;;;9.65;100.00
21273;BME280;36726;52.328;10.552;2022-09-30T08:21:55;100093.28;;;9.71;100.00
21273;BME280;36726;52.328;10.552;2022-09-30T08:24:23;100095.03;;;9.77;100.00
21273;BME280;36726;52.328;10.552;2022-09-30T08:26:51;100099.50;;;9.82;100.00
21273;BME280;36726;52.328;10.552;2022-09-30T08:29:18;100106.63;;;9.91;100.00
21273;BME280;36726;52.328;10.552;2022-09-30T08:32:05;100103.16;;;9.98;100.00
21273;BME280;36726;52.328;10.552;2022-09-30T08:34:32;100103.22;;;10.05;100.00
21273;BME280;36726;52.328;10.552;2022-09-30T08:37:02;100105.94;;;10.11;100.00
21273;BME280;36726;52.328;10.552;2022-09-30T08:39:38;100106.00;;;10.20;100.00
21273;BME280;36726;52.328;10.552;2022-09-30T08:48:31;100117.63;;;10.45;100.00
21273;BME280;36726;52.328;10.552;2022-09-30T08:54:02;100127.41;;;10.60;100.00
21273;BME280;36726;52.328;10.552;2022-09-30T08:56:32;100119.50;;;10.66;100.00
21273;BME280;36726;52.328;10.552;2022-09-30T08:59:37;100124.81;;;10.72;99.94
21273;BME280;36726;52.328;10.552;2022-09-30T09:02:24;100130.16;;;10.79;99.61
21273;BME280;36726;52.328;10.552;2022-09-30T09:04:57;100129.31;;;10.85;98.41
21273;BME280;36726;52.328;10.552;2022-09-30T09:20:56;100133.91;;;11.50;91.43
21273;BME280;36726;52.328;10.552;2022-09-30T09:23:24;100141.00;;;11.58;91.36
21273;BME280;36726;52.328;10.552;2022-09-30T09:25:51;100132.25;;;11.66;89.86
21273;BME280;36726;52.328;10.552;2022-09-30T09:28:36;100142.84;;;11.75;88.97
21273;BME280;36726;52.328;10.552;2022-09-30T09:31:13;100134.03;;;11.84;88.60
21273;BME280;36726;52.328;10.552;2022-09-30T09:33:42;100120.75;;;11.90;89.05
21273;BME280;36726;52.328;10.552;2022-09-30T09:36:28;100119.00;;;11.95;88.91
21273;BME280;36726;52.328;10.552;2022-09-30T09:39:20;100119.00;;;11.99;89.79
21273;BME280;36726;52.328;10.552;2022-09-30T09:42:04;100117.22;;;12.04;90.35
21273;BME280;36726;52.328;10.552;2022-09-30T09:47:22;100127.84;;;12.24;86.60
21273;BME280;36726;52.328;10.552;2022-09-30T09:49:52;100118.09;;;12.32;86.70
21273;BME280;36726;52.328;10.552;2022-09-30T09:52:37;100112.78;;;12.38;86.91
21273;BME280;36726;52.328;10.552;2022-09-30T09:55:11;100113.66;;;12.41;87.18
21273;BME280;36726;52.328;10.552;2022-09-30T09:57:38;100111.00;;;12.44;86.46
21273;BME280;36726;52.328;10.552;2022-09-30T10:00:09;100111.88;;;12.52;86.61
21273;BME280;36726;52.328;10.552;2022-09-30T10:03:00;100108.28;;;12.63;85.70
21273;BME280;36726;52.328;10.552;2022-09-30T10:05:27;100099.41;;;12.70;84.79
21273;BME280;36726;52.328;10.552;2022-09-30T10:08:14;100114.44;;;12.75;81.85
21273;BME280;36726;52.328;10.552;2022-09-30T10:10:47;100106.44;;;12.84;79.28
21273;BME280;36726;52.328;10.552;2022-09-30T10:13:23;100103.75;;;12.99;79.10
21273;BME280;36726;52.328;10.552;2022-09-30T10:15:55;100114.34;;;13.05;79.52
21273;BME280;36726;52.328;10.552;2022-09-30T10:18:30;100105.47;;;13.14;78.08
21273;BME280;36726;52.328;10.552;2022-09-30T10:21:00;100108.09;;;13.18;78.92
21273;BME280;36726;52.328;10.552;2022-09-30T10:23:34;100114.28;;;13.22;74.76
21273;BME280;36726;52.328;10.552;2022-09-30T10:31:29;100115.94;;;13.39;77.93
21273;BME280;36726;52.328;10.552;2022-09-30T10:34:29;100114.19;;;13.40;73.02
21273;BME280;36726;52.328;10.552;2022-09-30T10:36:59;100107.03;;;13.51;73.82
21273;BME280;36726;52.328;10.552;2022-09-30T10:39:35;100109.63;;;13.60;72.78
21273;BME280;36726;52.328;10.552;2022-09-30T10:42:08;100110.47;;;13.70;73.29
21273;BME280;36726;52.328;10.552;2022-09-30T10:44:42;100108.63;;;13.76;72.72
21273;BME280;36726;52.328;10.552;2022-09-30T10:47:14;100108.56;;;13.85;73.90
21273;BME280;36726;52.328;10.552;2022-09-30T10:49:48;100116.44;;;13.96;74.33
21273;BME280;36726;52.328;10.552;2022-09-30T10:52:21;100103.13;;;13.99;74.63
21273;BME280;36726;52.328;10.552;2022-09-30T10:54:51;100100.44;;;14.02;73.25
21273;BME280;36726;52.328;10.552;2022-09-30T10:57:23;100105.69;;;14.11;71.78
21273;BME280;36726;52.328;10.552;2022-09-30T10:59:56;100099.38;;;14.21;69.78
21273;BME280;36726;52.328;10.552;2022-09-30T11:02:48;100100.19;;;14.32;71.49
21273;BME280;36726;52.328;10.552;2022-09-30T11:05:29;100109.00;;;14.38;68.85
21273;BME280;36726;52.328;10.552;2022-09-30T11:08:01;100102.75;;;14.41;70.12
21273;BME280;36726;52.328;10.552;2022-09-30T11:13:15;100104.53;;;14.43;65.75
21273;BME280;36726;52.328;10.552;2022-09-30T11:18:45;100099.88;;;14.64;67.92
21273;BME280;36726;52.328;10.552;2022-09-30T11:21:20;100099.03;;;14.57;68.29
21273;BME280;36726;52.328;10.552;2022-09-30T11:26:54;100094.75;;;14.45;67.77
21273;BME280;36726;52.328;10.552;2022-09-30T11:32:23;100095.56;;;14.52;66.33
21273;BME280;36726;52.328;10.552;2022-09-30T11:35:17;100091.91;;;14.62;66.79
21273;BME280;36726;52.328;10.552;2022-09-30T11:38:02;100096.28;;;14.66;67.22
21273;BME280;36726;52.328;10.552;2022-09-30T11:44:00;100106.81;;;14.75;62.20
21273;BME280;36726;52.328;10.552;2022-09-30T11:49:47;100110.22;;;14.91;64.88
21273;BME280;36726;52.328;10.552;2022-09-30T11:55:24;100103.88;;;14.99;59.02
21273;BME280;36726;52.328;10.552;2022-09-30T11:58:16;100105.50;;;15.12;59.55
21273;BME280;36726;52.328;10.552;2022-09-30T12:01:13;100110.72;;;15.18;57.69
21273;BME280;36726;52.328;10.552;2022-09-30T12:03:46;100111.56;;;15.23;59.73
21273;BME280;36726;52.328;10.552;2022-09-30T12:06:25;100111.53;;;15.25;58.40
21273;BME280;36726;52.328;10.552;2022-09-30T12:08:58;100105.28;;;15.27;60.60
21273;BME280;36726;52.328;10.552;2022-09-30T12:14:24;100107.91;;;15.30;59.74
21273;BME280;36726;52.328;10.552;2022-09-30T12:16:52;100114.09;;;15.32;57.89
21273;BME280;36726;52.328;10.552;2022-09-30T12:19:41;100113.16;;;15.38;57.02
21273;BME280;36726;52.328;10.552;2022-09-30T12:22:23;100114.03;;;15.41;59.51
21273;BME280;36726;52.328;10.552;2022-09-30T12:24:53;100106.84;;;15.46;57.07
21273;BME280;36726;52.328;10.552;2022-09-30T12:27:24;100108.56;;;15.50;57.82
21273;BME280;36726;52.328;10.552;2022-09-30T12:30:10;100108.50;;;15.53;58.53
21273;BME280;36726;52.328;10.552;2022-09-30T12:33:12;100105.81;;;15.55;58.62
21273;BME280;36726;52.328;10.552;2022-09-30T12:41:58;100103.94;;;15.60;55.18
21273;BME280;36726;52.328;10.552;2022-09-30T12:47:50;100095.91;;;15.65;55.50
21273;BME280;36726;52.328;10.552;2022-09-30T12:50:22;100099.44;;;15.67;55.56
21273;BME280;36726;52.328;10.552;2022-09-30T12:52:51;100098.44;;;15.71;57.25
21273;BME280;36726;52.328;10.552;2022-09-30T12:55:25;100087.78;;;15.71;57.43
21273;BME280;36726;52.328;10.552;2022-09-30T12:57:54;100086.03;;;15.70;58.50
21273;BME280;36726;52.328;10.552;2022-09-30T13:00:24;100092.28;;;15.67;56.31
21273;BME280;36726;52.328;10.552;2022-09-30T13:03:13;100086.91;;;15.72;56.27
21273;BME280;36726;52.328;10.552;2022-09-30T13:05:46;100084.19;;;15.73;57.07
21273;BME280;36726;52.328;10.552;2022-09-30T13:10:57;100088.63;;;15.76;54.40
21273;BME280;36726;52.328;10.552;2022-09-30T13:13:29;100087.72;;;15.75;55.81
21273;BME280;36726;52.328;10.552;2022-09-30T13:16:00;100080.66;;;15.74;55.08
21273;BME280;36726;52.328;10.552;2022-09-30T13:23:52;100085.13;;;15.71;56.30
21273;BME280;36726;52.328;10.552;2022-09-30T13:32:00;100070.91;;;15.72;57.47
21273;BME280;36726;52.328;10.552;2022-09-30T13:41:47;100070.97;;;15.69;58.28
21273;BME280;36726;52.328;10.552;2022-09-30T13:44:19;100064.72;;;15.68;58.35
21273;BME280;36726;52.328;10.552;2022-09-30T13:46:50;100067.44;;;15.67;58.64
21273;BME280;36726;52.328;10.552;2022-09-30T13:49:44;100071.88;;;15.66;57.28
21273;BME280;36726;52.328;10.552;2022-09-30T13:52:20;100067.38;;;15.70;57.04
21273;BME280;36726;52.328;10.552;2022-09-30T13:54:49;100069.13;;;15.71;57.54
21273;BME280;36726;52.328;10.552;2022-09-30T13:57:22;100065.56;;;15.72;54.87
21273;BME280;36726;52.328;10.552;2022-09-30T14:00:17;100071.72;;;15.75;54.35
21273;BME280;36726;52.328;10.552;2022-09-30T14:02:58;100075.25;;;15.77;54.14
21273;BME280;36726;52.328;10.552;2022-09-30T14:05:38;100060.97;;;15.80;54.10
21273;BME280;36726;52.328;10.552;2022-09-30T14:17:04;100069.88;;;15.80;51.88
21273;BME280;36726;52.328;10.552;2022-09-30T14:19:52;100065.41;;;15.81;53.39
21273;BME280;36726;52.328;10.552;2022-09-30T14:22:25;100061.84;;;15.80;53.01
21273;BME280;36726;52.328;10.552;2022-09-30T14:24:56;100064.50;;;15.83;53.11
21273;BME280;36726;52.328;10.552;2022-09-30T14:37:48;100066.22;;;15.86;53.25
21273;BME280;36726;52.328;10.552;2022-09-30T14:40:25;100062.63;;;15.88;53.18
21273;BME280;36726;52.328;10.552;2022-09-30T14:42:53;100068.00;;;15.87;52.25
21273;BME280;36726;52.328;10.552;2022-09-30T14:45:30;100063.47;;;15.89;52.98
21273;BME280;36726;52.328;10.552;2022-09-30T14:48:05;100060.91;;;15.84;53.42
21273;BME280;36726;52.328;10.552;2022-09-30T14:50:46;100066.31;;;15.81;52.50
21273;BME280;36726;52.328;10.552;2022-09-30T14:53:28;100067.16;;;15.82;53.10
21273;BME280;36726;52.328;10.552;2022-09-30T14:55:56;100070.75;;;15.81;54.35
21273;BME280;36726;52.328;10.552;2022-09-30T14:58:27;100065.41;;;15.81;54.44
21273;BME280;36726;52.328;10.552;2022-09-30T15:01:01;100063.63;;;15.80;55.36
21273;BME280;36726;52.328;10.552;2022-09-30T15:03:29;100062.75;;;15.81;55.73
21273;BME280;36726;52.328;10.552;2022-09-30T15:05:58;100052.09;;;15.81;55.56
21273;BME280;36726;52.328;10.552;2022-09-30T15:08:25;100054.75;;;15.81;56.06
21273;BME280;36726;52.328;10.552;2022-09-30T15:10:54;100054.75;;;15.81;55.23
21273;BME280;36726;52.328;10.552;2022-09-30T15:13:23;100058.31;;;15.81;54.99
21273;BME280;36726;52.328;10.552;2022-09-30T15:15:50;100047.63;;;15.80;55.82
21273;BME280;36726;52.328;10.552;2022-09-30T15:20:55;100061.94;;;15.76;55.75
21273;BME280;36726;52.328;10.552;2022-09-30T15:23:29;100055.75;;;15.74;55.87
21273;BME280;36726;52.328;10.552;2022-09-30T15:25:57;100051.31;;;15.74;56.27
21273;BME280;36726;52.328;10.552;2022-09-30T15:28:24;100057.56;;;15.72;55.91